Time;durP1;ratioP1;P1;durP2;ratioP2;P2;SDS_P1;SDS_P2;PMS_P1;PMS_P2;Temp;Humidity;BMP_temperature;BMP_pressure;BME280_temperature;BME280_humidity;BME280_pressure;Samples;Min_cycle;Max_cycle;Signal;HPM_P1;HPM_P2
2023/09/06 00:00:37;;;;;;;20.17;11.60;;;18.10;99.90;;;;;;5011924;28;20077;-73
2023/09/06 00:03:03;;;;;;;18.25;12.40;;;18.10;99.90;;;;;;5011768;28;20036;-75
2023/09/06 00:05:29;;;;;;;22.02;11.70;;;18.10;99.90;;;;;;5011677;28;20473;-76
2023/09/06 00:07:56;;;;;;;21.13;11.57;;;18.00;99.90;;;;;;5011851;28;20022;-73
2023/09/06 00:10:22;;;;;;;19.60;12.50;;;18.00;99.90;;;;;;5006061;28;20026;-73
2023/09/06 00:12:47;;;;;;;21.00;12.18;;;18.00;99.90;;;;;;5011557;28;20429;-74
2023/09/06 00:15:14;;;;;;;21.08;12.65;;;17.90;99.90;;;;;;5011647;28;20093;-76
2023/09/06 00:17:41;;;;;;;17.58;12.02;;;18.00;99.90;;;;;;5011733;28;20026;-74
2023/09/06 00:20:20;;;;;;;19.13;13.13;;;18.00;99.90;;;;;;5010847;28;20469;-76
2023/09/06 00:23:00;;;;;;;21.58;12.95;;;18.00;99.90;;;;;;5007795;28;20561;-75
2023/09/06 00:25:27;;;;;;;18.83;12.98;;;17.90;99.90;;;;;;5007922;28;20061;-74
2023/09/06 00:27:55;;;;;;;19.15;11.35;;;17.90;99.90;;;;;;5011587;28;20034;-73
2023/09/06 00:30:21;;;;;;;18.55;12.93;;;17.90;99.90;;;;;;5009084;28;20051;-74
2023/09/06 00:32:52;;;;;;;19.83;11.95;;;17.90;99.90;;;;;;5011170;28;20040;-75
2023/09/06 00:35:19;;;;;;;21.15;13.57;;;17.80;99.90;;;;;;5011459;28;20068;-75
2023/09/06 00:37:45;;;;;;;20.00;12.75;;;17.70;99.90;;;;;;5007460;28;20026;-74
2023/09/06 00:40:17;;;;;;;24.88;13.98;;;17.70;99.90;;;;;;4992487;28;20038;-74
2023/09/06 00:42:46;;;;;;;25.05;13.52;;;17.80;99.90;;;;;;4993437;28;20026;-75
2023/09/06 00:45:12;;;;;;;22.25;14.30;;;17.70;99.90;;;;;;5011049;28;20101;-75
2023/09/06 00:47:38;;;;;;;24.85;13.82;;;17.60;99.90;;;;;;4993005;28;20025;-74
2023/09/06 00:50:05;;;;;;;21.98;14.02;;;17.70;99.90;;;;;;4992613;28;20044;-75
2023/09/06 00:52:31;;;;;;;24.27;13.90;;;17.70;99.90;;;;;;5010815;28;20049;-73
2023/09/06 00:55:00;;;;;;;20.58;13.82;;;17.70;99.90;;;;;;4993246;28;20034;-73
2023/09/06 00:57:29;;;;;;;20.60;15.13;;;17.60;99.90;;;;;;5007153;28;20470;-75
2023/09/06 00:59:58;;;;;;;21.45;13.15;;;17.60;99.90;;;;;;5009648;28;20030;-76
2023/09/06 01:02:27;;;;;;;21.88;13.85;;;17.70;99.90;;;;;;4993326;28;20025;-74
2023/09/06 01:04:53;;;;;;;21.58;14.18;;;17.60;99.90;;;;;;5008777;28;20030;-72
2023/09/06 01:07:23;;;;;;;21.35;13.23;;;17.60;99.90;;;;;;5010885;28;20389;-73
2023/09/06 01:09:50;;;;;;;24.88;13.48;;;17.60;99.90;;;;;;5007064;28;20133;-75
2023/09/06 01:12:16;;;;;;;18.02;12.45;;;17.60;99.90;;;;;;5010554;28;20026;-75
2023/09/06 01:14:42;;;;;;;20.13;13.27;;;17.60;99.90;;;;;;4992940;28;20029;-76
2023/09/06 01:17:10;;;;;;;21.52;12.02;;;17.60;99.90;;;;;;5010437;28;20022;-75
2023/09/06 01:19:43;;;;;;;22.92;11.95;;;17.60;99.90;;;;;;5009707;28;20105;-74
2023/09/06 01:22:31;;;;;;;18.45;12.15;;;17.70;99.90;;;;;;4992557;28;20042;-74
2023/09/06 01:24:57;;;;;;;20.77;12.50;;;17.60;99.90;;;;;;5008050;28;20030;-76
2023/09/06 01:27:24;;;;;;;16.90;11.48;;;17.60;99.90;;;;;;5010485;28;20036;-74
2023/09/06 01:29:50;;;;;;;21.08;13.15;;;17.50;99.90;;;;;;4993027;28;20037;-76
2023/09/06 01:32:16;;;;;;;20.73;13.15;;;17.50;99.90;;;;;;5009669;28;20122;-74
2023/09/06 01:34:42;;;;;;;19.95;13.82;;;17.50;99.90;;;;;;4991750;28;20018;-74
2023/09/06 01:37:08;;;;;;;20.77;12.80;;;17.40;99.90;;;;;;4992054;28;20034;-76
2023/09/06 01:39:33;;;;;;;20.05;12.65;;;17.40;99.90;;;;;;4992241;28;20533;-75
2023/09/06 01:42:01;;;;;;;26.35;12.10;;;17.40;99.90;;;;;;4992819;28;20029;-74
2023/09/06 01:44:26;;;;;;;18.25;11.25;;;17.40;99.90;;;;;;4998699;28;20404;-74
2023/09/06 01:46:53;;;;;;;21.75;11.95;;;17.30;99.90;;;;;;4997042;28;20034;-74
2023/09/06 01:49:18;;;;;;;19.42;12.10;;;17.30;99.90;;;;;;4995430;28;20031;-76
2023/09/06 01:51:44;;;;;;;20.98;12.85;;;17.20;99.90;;;;;;4998774;28;20069;-74
2023/09/06 01:54:11;;;;;;;18.65;13.32;;;17.20;99.90;;;;;;4989780;28;20384;-74
2023/09/06 01:56:37;;;;;;;19.50;12.40;;;17.30;99.90;;;;;;4995964;28;20485;-75
2023/09/06 01:59:03;;;;;;;22.33;14.35;;;17.30;99.90;;;;;;4995708;28;20025;-75
2023/09/06 02:01:30;;;;;;;19.33;11.68;;;17.30;99.90;;;;;;5014232;28;20022;-74
2023/09/06 02:03:56;;;;;;;18.23;11.85;;;17.30;99.90;;;;;;5013999;28;20075;-75
2023/09/06 02:06:22;;;;;;;19.92;11.35;;;17.10;99.90;;;;;;4995830;28;20116;-76
2023/09/06 02:08:49;;;;;;;21.33;13.13;;;17.10;99.90;;;;;;5013966;28;20049;-75
2023/09/06 02:11:18;;;;;;;19.05;12.27;;;17.00;99.90;;;;;;5009838;28;20045;-75
2023/09/06 02:13:43;;;;;;;17.33;12.63;;;16.90;99.90;;;;;;4995779;28;20034;-76
2023/09/06 02:16:12;;;;;;;19.52;13.65;;;16.90;99.90;;;;;;4996039;28;20029;-75
2023/09/06 02:18:37;;;;;;;20.10;13.40;;;16.80;99.90;;;;;;5013951;28;20029;-75
2023/09/06 02:21:03;;;;;;;22.35;14.45;;;16.70;99.90;;;;;;5013659;28;20397;-76
2023/09/06 02:23:29;;;;;;;20.88;13.93;;;16.70;99.90;;;;;;5013550;28;20461;-74
2023/09/06 02:25:56;;;;;;;22.52;14.90;;;16.70;99.90;;;;;;5013752;28;20026;-74
2023/09/06 02:28:22;;;;;;;22.02;13.52;;;16.70;99.90;;;;;;5013631;28;20029;-74
2023/09/06 02:30:48;;;;;;;24.63;15.15;;;16.80;99.90;;;;;;4979672;28;20085;-76
2023/09/06 02:33:14;;;;;;;21.25;13.43;;;16.80;99.90;;;;;;5013461;28;20481;-74
2023/09/06 02:35:41;;;;;;;21.48;14.38;;;16.80;99.90;;;;;;4995944;28;20030;-74
2023/09/06 02:38:08;;;;;;;26.80;14.50;;;16.80;99.90;;;;;;5013220;28;20109;-74
2023/09/06 02:40:34;;;;;;;18.67;13.65;;;16.80;99.90;;;;;;4994375;28;20046;-73
2023/09/06 02:43:02;;;;;;;22.42;14.23;;;16.80;99.90;;;;;;5013107;28;20069;-74
2023/09/06 02:45:36;;;;;;;20.05;13.80;;;16.80;99.90;;;;;;5013361;28;20018;-74
2023/09/06 02:48:12;;;;;;;25.17;13.65;;;16.90;99.90;;;;;;5010128;28;20393;-74
2023/09/06 02:50:39;;;;;;;19.65;13.77;;;16.90;99.90;;;;;;4990436;28;20037;-73
2023/09/06 02:53:15;;;;;;;17.20;13.18;;;17.00;99.90;;;;;;5013189;28;20088;-76
2023/09/06 02:55:41;;;;;;;21.60;14.45;;;17.00;99.90;;;;;;4991683;28;20030;-75
2023/09/06 02:58:10;;;;;;;20.08;13.95;;;17.00;99.90;;;;;;5010990;28;20034;-75
2023/09/06 03:00:40;;;;;;;18.92;14.27;;;17.00;99.90;;;;;;5012973;28;20022;-77
2023/09/06 03:03:06;;;;;;;22.65;14.63;;;17.10;99.90;;;;;;5012981;28;20022;-75
2023/09/06 03:05:41;;;;;;;23.92;13.55;;;17.10;99.90;;;;;;5009391;28;20044;-74
2023/09/06 03:08:10;;;;;;;19.48;13.23;;;17.00;99.90;;;;;;4991537;28;20022;-74
2023/09/06 03:10:36;;;;;;;21.63;14.45;;;17.00;99.90;;;;;;5012232;28;20061;-74
2023/09/06 03:13:02;;;;;;;19.85;14.13;;;17.00;99.90;;;;;;4990397;28;20030;-75
2023/09/06 03:15:29;;;;;;;20.80;14.93;;;16.90;99.90;;;;;;5009433;28;20445;-76
2023/09/06 03:17:59;;;;;;;21.55;15.25;;;16.80;99.90;;;;;;4975499;28;20438;-73
2023/09/06 03:20:42;;;;;;;19.83;14.65;;;16.80;99.90;;;;;;5015993;28;20105;-74
2023/09/06 03:23:17;;;;;;;19.88;13.75;;;16.80;99.90;;;;;;4991200;28;20470;-75
2023/09/06 03:25:57;;;;;;;21.50;14.88;;;16.80;99.90;;;;;;4994496;28;20022;-74
2023/09/06 03:28:28;;;;;;;24.25;15.25;;;16.70;99.90;;;;;;4992939;28;20029;-77
2023/09/06 03:30:58;;;;;;;23.73;13.80;;;16.60;99.90;;;;;;5014367;28;20040;-75
2023/09/06 03:33:28;;;;;;;20.48;14.27;;;16.70;99.90;;;;;;4995954;28;20026;-74
2023/09/06 03:35:55;;;;;;;23.83;14.45;;;16.70;99.90;;;;;;5005637;28;20457;-74
2023/09/06 03:38:25;;;;;;;20.98;14.95;;;16.50;99.90;;;;;;4989913;28;20481;-77
2023/09/06 03:40:51;;;;;;;23.05;15.07;;;16.50;99.90;;;;;;4985272;28;20044;-72
2023/09/06 03:43:29;;;;;;;20.77;13.68;;;16.50;99.90;;;;;;4983264;28;20022;-72
2023/09/06 03:45:58;;;;;;;20.02;14.25;;;16.50;99.90;;;;;;5003021;28;20030;-73
2023/09/06 03:48:27;;;;;;;21.40;15.38;;;16.60;99.90;;;;;;5007241;28;20030;-73
2023/09/06 03:50:59;;;;;;;18.90;14.13;;;16.60;99.90;;;;;;4995234;28;20042;-75
2023/09/06 03:53:27;;;;;;;20.75;13.30;;;16.60;99.90;;;;;;5013516;28;20482;-76
2023/09/06 03:55:57;;;;;;;18.20;13.00;;;16.60;99.90;;;;;;4996059;28;20113;-74
2023/09/06 03:58:28;;;;;;;20.17;13.52;;;16.70;99.90;;;;;;5012008;28;20026;-74
2023/09/06 04:00:55;;;;;;;27.00;14.68;;;16.70;99.90;;;;;;4984063;28;20036;-76
2023/09/06 04:03:30;;;;;;;20.20;13.07;;;16.70;99.90;;;;;;4996000;28;20124;-72
2023/09/06 04:05:57;;;;;;;19.45;12.88;;;16.70;99.90;;;;;;4976658;28;20034;-72
2023/09/06 04:08:29;;;;;;;21.20;13.55;;;16.70;99.90;;;;;;5012745;28;20041;-72
2023/09/06 04:10:56;;;;;;;19.38;14.02;;;16.70;99.90;;;;;;4982713;28;20465;-72
2023/09/06 04:13:22;;;;;;;19.25;12.43;;;16.70;99.90;;;;;;4986427;28;20070;-72
2023/09/06 04:15:48;;;;;;;17.80;12.27;;;16.80;99.90;;;;;;4991722;28;20057;-72
2023/09/06 04:18:14;;;;;;;18.55;12.15;;;16.70;99.90;;;;;;4989613;28;20088;-72
2023/09/06 04:20:46;;;;;;;20.92;12.82;;;16.80;99.90;;;;;;4994378;28;20030;-75
2023/09/06 04:23:14;;;;;;;28.42;13.82;;;16.80;99.90;;;;;;4993736;28;20105;-72
2023/09/06 04:25:46;;;;;;;17.50;11.98;;;16.90;99.90;;;;;;4994482;28;20033;-72
2023/09/06 04:28:16;;;;;;;;;;;17.10;99.90;;;;;;5012715;28;20469;-73
2023/09/06 04:30:46;;;;;;;21.50;11.85;;;17.10;99.90;;;;;;4994992;28;20390;-74
2023/09/06 04:33:14;;;;;;;18.85;12.43;;;17.50;99.90;;;;;;4989628;28;20026;-74
2023/09/06 04:35:47;;;;;;;18.17;11.82;;;18.00;99.90;;;;;;4994757;28;20025;-72
2023/09/06 04:38:16;;;;;;;18.77;11.88;;;18.50;99.90;;;;;;5011079;28;20030;-73
2023/09/06 04:40:44;;;;;;;20.50;11.93;;;18.90;99.90;;;;;;4992443;28;20026;-73
2023/09/06 04:43:15;;;;;;;20.15;11.85;;;19.20;99.90;;;;;;5008408;28;20037;-73
2023/09/06 04:45:41;;;;;;;20.95;11.93;;;19.60;99.90;;;;;;5011326;28;20037;-73
2023/09/06 04:48:09;;;;;;;17.33;10.18;;;20.10;99.90;;;;;;5012664;28;20022;-72
2023/09/06 04:50:39;;;;;;;14.40;9.98;;;20.60;99.90;;;;;;4994787;28;20041;-74
2023/09/06 04:53:07;;;;;;;18.08;10.93;;;20.80;99.90;;;;;;4994587;28;20026;-75
2023/09/06 04:55:35;;;;;;;18.83;10.95;;;20.80;99.90;;;;;;5012507;28;20474;-73
2023/09/06 04:58:08;;;;;;;20.55;11.10;;;20.80;99.90;;;;;;4994395;28;20037;-75
2023/09/06 05:00:46;;;;;;;17.88;10.75;;;21.00;99.90;;;;;;5012313;28;20034;-75
2023/09/06 05:03:17;;;;;;;19.08;11.07;;;21.30;99.90;;;;;;4994560;28;20026;-76
2023/09/06 05:05:45;;;;;;;16.00;9.57;;;21.30;99.90;;;;;;4994418;28;20117;-74
2023/09/06 05:08:12;;;;;;;15.00;9.88;;;21.60;99.90;;;;;;4994648;28;20026;-72
2023/09/06 05:10:39;;;;;;;17.17;9.57;;;22.10;99.90;;;;;;4994141;28;20034;-75
2023/09/06 05:13:11;;;;;;;15.27;9.50;;;22.30;99.90;;;;;;4994582;28;20036;-74
2023/09/06 05:15:40;;;;;;;17.05;9.93;;;22.50;99.90;;;;;;4994372;28;20038;-73
2023/09/06 05:18:09;;;;;;;22.67;9.95;;;23.20;99.70;;;;;;4994790;28;20029;-72
2023/09/06 05:20:38;;;;;;;15.63;9.27;;;23.30;98.40;;;;;;4993648;28;20022;-75
2023/09/06 05:23:14;;;;;;;16.33;9.30;;;22.60;99.20;;;;;;4990883;28;20037;-74
2023/09/06 05:25:42;;;;;;;16.10;9.82;;;21.90;99.90;;;;;;4988444;28;20030;-74
2023/09/06 05:28:15;;;;;;;13.77;8.48;;;21.50;99.90;;;;;;4987182;28;20049;-76
2023/09/06 05:30:46;;;;;;;20.55;10.75;;;20.80;99.90;;;;;;4994429;28;20085;-75
2023/09/06 05:33:15;;;;;;;14.80;9.48;;;20.80;99.90;;;;;;4994312;28;20038;-73
2023/09/06 05:35:43;;;;;;;12.82;8.60;;;20.40;99.90;;;;;;4994251;28;20037;-74
2023/09/06 05:38:10;;;;;;;15.35;9.70;;;20.10;99.90;;;;;;4992069;28;20033;-73
2023/09/06 05:40:43;;;;;;;15.70;9.80;;;20.50;99.90;;;;;;4984556;28;20025;-72
2023/09/06 05:43:14;;;;;;;14.40;9.68;;;20.50;99.90;;;;;;4981920;28;20022;-73
2023/09/06 05:45:40;;;;;;;16.90;9.85;;;20.60;99.90;;;;;;4987654;28;20029;-74
2023/09/06 05:48:07;;;;;;;14.00;8.70;;;20.60;99.90;;;;;;4994381;28;20426;-76
2023/09/06 05:50:34;;;;;;;13.88;9.77;;;20.30;99.90;;;;;;4993961;28;20555;-74
2023/09/06 05:53:00;;;;;;;14.27;9.35;;;20.50;99.90;;;;;;4994124;28;20033;-74
2023/09/06 05:55:26;;;;;;;12.90;8.13;;;20.30;99.90;;;;;;4994242;28;20033;-74
2023/09/06 05:57:54;;;;;;;16.45;8.80;;;20.60;99.90;;;;;;4993816;28;20104;-74
2023/09/06 06:00:21;;;;;;;13.98;8.35;;;20.70;99.90;;;;;;4994239;28;20026;-74
2023/09/06 06:02:55;;;;;;;13.90;7.90;;;20.50;99.90;;;;;;4994175;28;20022;-73
2023/09/06 06:05:21;;;;;;;37.22;9.25;;;20.80;99.90;;;;;;5011540;28;20516;-73
2023/09/06 06:07:47;;;;;;;16.55;9.25;;;20.90;99.90;;;;;;4993515;28;20026;-73
2023/09/06 06:10:14;;;;;;;14.18;8.63;;;20.80;99.90;;;;;;4993437;28;20077;-75
2023/09/06 06:12:40;;;;;;;13.45;8.75;;;20.70;99.90;;;;;;5011972;28;20050;-73
2023/09/06 06:15:08;;;;;;;17.30;8.57;;;20.90;99.90;;;;;;5011479;28;20426;-73
2023/09/06 06:17:35;;;;;;;13.13;8.00;;;21.00;99.90;;;;;;5011857;28;20034;-75
2023/09/06 06:20:03;;;;;;;15.30;8.43;;;21.00;99.90;;;;;;5011796;28;20417;-73
2023/09/06 06:22:29;;;;;;;11.43;7.75;;;21.20;99.90;;;;;;5011815;28;20026;-74
2023/09/06 06:25:01;;;;;;;12.20;7.68;;;21.30;99.90;;;;;;5011070;28;20026;-75
2023/09/06 06:27:27;;;;;;;9.95;6.57;;;21.40;99.90;;;;;;5011913;28;20544;-76
2023/09/06 06:29:53;;;;;;;11.50;7.15;;;21.50;99.90;;;;;;5011140;28;20109;-74
2023/09/06 06:32:19;;;;;;;11.00;7.30;;;21.70;99.90;;;;;;5013830;28;20034;-75
2023/09/06 06:34:49;;;;;;;15.35;7.47;;;21.70;99.90;;;;;;5015120;28;20033;-74
2023/09/06 06:37:15;;;;;;;12.88;7.78;;;21.80;99.90;;;;;;5015257;28;20033;-74
2023/09/06 06:39:41;;;;;;;12.48;7.13;;;21.90;99.90;;;;;;5015009;28;20034;-75
2023/09/06 06:42:07;;;;;;;11.00;6.75;;;22.00;99.90;;;;;;5014888;28;20037;-73
2023/09/06 06:44:38;;;;;;;9.93;6.95;;;22.10;99.90;;;;;;4996984;28;20402;-73
2023/09/06 06:47:04;;;;;;;11.90;6.63;;;22.10;99.90;;;;;;5014837;28;20022;-74
2023/09/06 06:49:32;;;;;;;13.30;7.10;;;;;;;;;;5015173;28;20022;-73
2023/09/06 06:51:57;;;;;;;12.70;7.28;;;22.60;99.90;;;;;;5014988;28;20046;-73
2023/09/06 06:54:24;;;;;;;11.15;7.05;;;22.60;99.90;;;;;;5014176;28;20028;-73
2023/09/06 06:56:50;;;;;;;10.55;6.28;;;22.90;99.90;;;;;;5014810;28;20018;-74
2023/09/06 06:59:17;;;;;;;11.63;7.43;;;22.80;99.90;;;;;;4996555;28;20041;-76
2023/09/06 07:01:42;;;;;;;12.07;7.38;;;22.80;99.90;;;;;;5014602;28;20037;-73
2023/09/06 07:04:08;;;;;;;13.02;7.25;;;23.10;99.90;;;;;;5014304;28;20026;-74
2023/09/06 07:06:35;;;;;;;11.82;7.25;;;23.30;99.90;;;;;;5014238;28;20073;-74
2023/09/06 07:09:04;;;;;;;12.20;7.00;;;23.40;99.90;;;;;;5014236;28;20092;-74
2023/09/06 07:11:31;;;;;;;12.77;7.75;;;23.60;99.90;;;;;;5014692;28;20129;-73
2023/09/06 07:13:57;;;;;;;13.65;7.75;;;23.30;99.90;;;;;;5014039;28;20117;-73
2023/09/06 07:16:23;;;;;;;13.90;7.40;;;23.60;99.90;;;;;;5014224;28;20451;-74
2023/09/06 07:18:49;;;;;;;13.80;7.05;;;23.60;99.60;;;;;;5014252;28;20106;-73
2023/09/06 07:21:16;;;;;;;11.20;7.38;;;24.00;99.00;;;;;;5014067;28;20041;-74
2023/09/06 07:23:42;;;;;;;15.45;8.15;;;23.90;98.50;;;;;;4996605;28;20026;-76
2023/09/06 07:26:08;;;;;;;14.35;8.57;;;24.20;98.50;;;;;;5014115;28;20041;-73
2023/09/06 07:28:45;;;;;;;14.05;7.63;;;23.90;98.30;;;;;;5013657;28;20026;-73
2023/09/06 07:31:14;;;;;;;16.40;8.45;;;24.00;98.00;;;;;;5013976;28;20038;-73
2023/09/06 07:33:40;;;;;;;13.43;8.60;;;24.30;98.80;;;;;;5013883;28;20045;-75
2023/09/06 07:36:06;;;;;;;14.75;8.30;;;24.20;99.40;;;;;;5014011;28;20042;-74
2023/09/06 07:38:32;;;;;;;16.27;9.02;;;24.50;98.50;;;;;;5013868;28;20022;-74
2023/09/06 07:41:03;;;;;;;18.08;9.18;;;24.60;98.40;;;;;;5014119;28;20033;-76
2023/09/06 07:43:31;;;;;;;11.57;7.90;;;24.60;99.10;;;;;;5012182;28;20021;-76
2023/09/06 07:45:58;;;;;;;13.10;8.07;;;25.00;97.90;;;;;;5013763;28;20048;-76
2023/09/06 07:48:31;;;;;;;14.30;8.23;;;24.80;98.80;;;;;;5013318;28;20022;-73
2023/09/06 07:50:59;;;;;;;14.82;8.15;;;25.20;98.10;;;;;;5013532;28;20496;-73
2023/09/06 07:53:25;;;;;;;18.77;9.32;;;25.20;97.10;;;;;;5013397;28;20034;-73
2023/09/06 07:55:52;;;;;;;14.98;8.40;;;25.20;96.40;;;;;;5013634;28;20453;-73
2023/09/06 07:58:19;;;;;;;17.75;8.23;;;25.30;96.40;;;;;;5013320;28;20552;-73
2023/09/06 08:00:45;;;;;;;16.42;7.82;;;25.40;96.00;;;;;;5013127;28;20489;-74
2023/09/06 08:03:11;;;;;;;13.18;7.45;;;25.70;96.50;;;;;;5011493;28;20042;-73
2023/09/06 08:05:37;;;;;;;14.02;7.43;;;25.90;95.40;;;;;;5013183;28;20544;-73
2023/09/06 08:08:11;;;;;;;12.65;7.82;;;25.60;94.10;;;;;;5013231;28;20048;-73
2023/09/06 08:10:39;;;;;;;11.85;7.28;;;25.60;95.30;;;;;;5013139;28;20132;-73
2023/09/06 08:13:05;;;;;;;16.23;7.30;;;25.40;93.90;;;;;;5013303;28;20037;-74
2023/09/06 08:15:33;;;;;;;12.40;7.00;;;25.40;93.90;;;;;;5013231;28;20092;-75
2023/09/06 08:18:00;;;;;;;13.75;7.70;;;25.00;93.80;;;;;;5012858;28;20112;-73
2023/09/06 08:20:25;;;;;;;12.40;7.38;;;25.10;94.40;;;;;;4995325;28;20390;-74
2023/09/06 08:22:51;;;;;;;12.13;7.35;;;25.10;94.10;;;;;;5013040;28;20117;-74
2023/09/06 08:25:18;;;;;;;11.13;5.75;;;25.60;95.50;;;;;;5013045;28;20389;-73
2023/09/06 08:27:44;;;;;;;10.60;6.25;;;25.90;95.30;;;;;;5012919;28;20014;-73
2023/09/06 08:30:15;;;;;;;13.38;6.25;;;25.90;93.50;;;;;;5012849;28;20084;-74
2023/09/06 08:32:42;;;;;;;11.90;6.03;;;25.40;92.30;;;;;;5012858;28;20101;-75
2023/09/06 08:35:11;;;;;;;12.40;5.78;;;25.40;93.10;;;;;;5012853;28;20025;-74
2023/09/06 08:37:38;;;;;;;8.90;5.47;;;25.60;93.80;;;;;;5013040;28;20045;-73
2023/09/06 08:40:07;;;;;;;9.75;6.00;;;25.70;92.30;;;;;;5012325;28;20065;-73
2023/09/06 08:42:35;;;;;;;16.10;6.38;;;25.00;91.80;;;;;;5013112;28;20394;-73
2023/09/06 08:45:04;;;;;;;11.88;6.50;;;25.10;92.20;;;;;;5012430;28;20097;-75
2023/09/06 08:47:31;;;;;;;10.88;6.13;;;25.40;93.10;;;;;;5012888;28;20153;-74
2023/09/06 08:49:57;;;;;;;12.02;6.90;;;25.60;99.90;;;;;;5012473;28;20113;-73
2023/09/06 08:52:24;;;;;;;11.00;6.47;;;25.60;92.50;;;;;;5012753;28;20426;-74
2023/09/06 08:54:50;;;;;;;10.18;5.78;;;25.50;92.20;;;;;;5012325;28;20033;-73
2023/09/06 08:57:17;;;;;;;13.15;6.45;;;25.60;92.30;;;;;;5012227;28;20033;-72
2023/09/06 08:59:43;;;;;;;12.88;6.65;;;25.40;92.50;;;;;;5012548;28;20073;-73
2023/09/06 09:02:12;;;;;;;12.68;5.82;;;25.80;93.60;;;;;;5012229;28;20025;-73
2023/09/06 09:04:42;;;;;;;8.60;5.35;;;26.20;92.90;;;;;;5012350;28;20026;-73
2023/09/06 09:07:16;;;;;;;10.15;5.38;;;26.60;92.40;;;;;;5012398;28;20396;-73
2023/09/06 09:10:07;;;;;;;10.63;6.05;;;26.60;92.00;;;;;;4999608;28;20046;-73
2023/09/06 09:12:34;;;;;;;10.30;5.78;;;26.90;92.30;;;;;;5012472;28;20144;-73
2023/09/06 09:15:02;;;;;;;11.30;5.60;;;26.90;91.70;;;;;;5011861;28;20022;-76
2023/09/06 09:17:29;;;;;;;8.85;4.90;;;26.80;91.00;;;;;;5012074;28;20034;-72
2023/09/06 09:19:57;;;;;;;9.45;5.05;;;26.90;90.90;;;;;;5012442;28;20072;-73
2023/09/06 09:22:40;;;;;;;6.85;4.75;;;27.10;90.90;;;;;;5011834;28;20129;-73
2023/09/06 09:25:17;;;;;;;10.02;5.10;;;27.30;89.50;;;;;;5012320;28;20377;-73
2023/09/06 09:27:54;;;;;;;8.52;4.95;;;27.40;89.30;;;;;;5012089;28;20096;-73
2023/09/06 09:30:20;;;;;;;8.35;4.72;;;27.50;87.70;;;;;;5011622;28;20486;-74
2023/09/06 09:32:46;;;;;;;9.95;4.53;;;27.10;83.80;;;;;;5012105;28;20056;-73
2023/09/06 09:35:13;;;;;;;7.85;4.40;;;27.20;87.10;;;;;;5012017;28;20030;-73
2023/09/06 09:37:51;;;;;;;8.10;4.88;;;27.50;87.60;;;;;;5012208;28;20215;-73
2023/09/06 09:40:21;;;;;;;6.15;4.25;;;27.20;82.80;;;;;;5011796;28;20556;-72
2023/09/06 09:42:57;;;;;;;8.32;4.57;;;27.30;83.40;;;;;;5017025;28;20026;-72
2023/09/06 09:45:25;;;;;;;11.82;5.18;;;26.80;84.10;;;;;;5019175;28;20037;-73
2023/09/06 09:47:57;;;;;;;8.32;4.55;;;27.00;85.30;;;;;;5011612;28;20101;-72
2023/09/06 09:50:29;;;;;;;12.13;5.55;;;26.70;83.40;;;;;;5012275;28;20036;-73
2023/09/06 09:52:55;;;;;;;;;;;26.50;85.10;;;;;;5012065;28;20034;-75
2023/09/06 09:55:31;;;;;;;15.95;4.80;;;26.70;86.90;;;;;;5011853;28;20316;-72
2023/09/06 09:57:58;;;;;;;8.95;5.22;;;26.60;85.20;;;;;;4999300;28;20037;-72
2023/09/06 10:00:27;;;;;;;8.10;5.00;;;26.90;86.00;;;;;;5011393;28;20055;-72
2023/09/06 10:02:57;;;;;;;8.30;4.60;;;27.20;88.90;;;;;;5011969;28;20022;-72
2023/09/06 10:05:26;;;;;;;9.13;5.63;;;27.10;85.20;;;;;;4993034;28;20034;-72
2023/09/06 10:07:55;;;;;;;6.97;4.65;;;27.20;85.60;;;;;;5015902;28;20209;-72
2023/09/06 10:10:26;;;;;;;9.60;5.55;;;27.10;86.40;;;;;;5015218;28;20026;-72
2023/09/06 10:12:53;;;;;;;9.52;5.07;;;26.60;83.50;;;;;;5015433;28;20041;-74
2023/09/06 10:15:20;;;;;;;7.90;4.68;;;26.70;85.80;;;;;;5015181;28;20045;-73
2023/09/06 10:17:50;;;;;;;8.25;4.78;;;26.70;84.40;;;;;;5015204;28;20026;-72
2023/09/06 10:20:16;;;;;;;7.18;4.55;;;26.80;84.70;;;;;;5015554;28;20355;-74
2023/09/06 10:22:46;;;;;;;9.98;4.45;;;27.10;84.30;;;;;;5015130;28;20398;-75
2023/09/06 10:25:15;;;;;;;7.20;4.40;;;26.90;82.50;;;;;;5015084;28;20021;-73
2023/09/06 10:27:51;;;;;;;9.02;4.00;;;26.80;81.50;;;;;;5015209;28;20026;-73
2023/09/06 10:30:28;;;;;;;7.50;4.10;;;27.20;82.70;;;;;;5010357;28;20470;-75
2023/09/06 10:32:54;;;;;;;8.98;4.30;;;27.40;83.20;;;;;;5014954;28;20041;-73
2023/09/06 10:35:24;;;;;;;6.57;4.05;;;27.70;85.10;;;;;;5015027;28;20101;-74
2023/09/06 10:38:06;;;;;;;6.00;3.67;;;27.80;83.80;;;;;;5015299;28;20053;-72
2023/09/06 10:40:55;;;;;;;7.30;3.75;;;27.80;84.80;;;;;;5015027;28;20029;-73
2023/09/06 10:43:26;;;;;;;6.82;4.32;;;27.20;80.20;;;;;;5002728;28;20042;-74
2023/09/06 10:46:04;;;;;;;5.05;3.60;;;27.20;82.90;;;;;;5014674;28;20038;-72
2023/09/06 10:48:30;;;;;;;6.45;3.67;;;27.40;82.80;;;;;;4997063;28;20109;-72
2023/09/06 10:51:08;;;;;;;6.63;3.47;;;27.60;81.70;;;;;;5014303;28;20449;-71
2023/09/06 10:53:35;;;;;;;6.68;3.70;;;27.70;82.30;;;;;;5014582;28;20495;-72
2023/09/06 10:56:02;;;;;;;6.40;3.45;;;27.80;78.80;;;;;;5014458;28;20248;-72
2023/09/06 10:58:29;;;;;;;7.88;3.53;;;27.80;82.30;;;;;;5014517;28;20081;-72
2023/09/06 11:01:12;;;;;;;5.40;2.92;;;27.90;82.20;;;;;;5014496;28;20058;-72
2023/09/06 11:03:38;;;;;;;6.05;3.83;;;28.00;80.10;;;;;;5014543;28;20034;-73
2023/09/06 11:06:06;;;;;;;7.57;3.88;;;28.10;81.30;;;;;;5014475;28;20018;-72
2023/09/06 11:08:33;;;;;;;10.13;4.30;;;28.10;78.10;;;;;;5014357;28;20050;-73
2023/09/06 11:11:01;;;;;;;7.25;3.70;;;28.10;79.30;;;;;;5014151;28;20124;-72
2023/09/06 11:13:30;;;;;;;9.80;4.28;;;28.00;78.80;;;;;;5014298;28;20026;-72
2023/09/06 11:15:56;;;;;;;5.93;3.53;;;28.00;77.80;;;;;;5014057;28;20030;-72
2023/09/06 11:18:22;;;;;;;5.72;3.65;;;27.90;76.40;;;;;;5014327;28;20049;-73
2023/09/06 11:20:50;;;;;;;9.52;4.35;;;27.90;75.80;;;;;;5013690;28;20037;-71
2023/09/06 11:23:16;;;;;;;10.18;3.58;;;28.10;79.00;;;;;;5014416;28;20041;-72
2023/09/06 11:25:43;;;;;;;6.45;3.45;;;28.00;78.70;;;;;;5013782;28;20113;-71
2023/09/06 11:28:19;;;;;;;7.50;3.50;;;28.10;78.60;;;;;;5014372;28;20077;-72
2023/09/06 11:30:48;;;;;;;10.60;3.85;;;28.00;78.80;;;;;;5013660;28;20070;-74
2023/09/06 11:33:16;;;;;;;8.90;4.45;;;28.00;77.40;;;;;;5013840;28;20073;-72
2023/09/06 11:35:52;;;;;;;21.02;4.40;;;28.00;79.90;;;;;;5014170;28;20017;-72
2023/09/06 11:38:24;;;;;;;12.57;4.35;;;28.10;77.30;;;;;;5013678;28;20032;-72
2023/09/06 11:40:51;;;;;;;7.60;4.07;;;28.10;78.30;;;;;;5013833;28;20065;-72
2023/09/06 11:43:22;;;;;;;5.68;3.78;;;28.10;78.70;;;;;;5013688;28;20022;-72
2023/09/06 11:45:53;;;;;;;6.55;4.20;;;28.00;78.70;;;;;;5013360;28;20470;-73
2023/09/06 11:48:25;;;;;;;5.38;3.88;;;27.90;76.80;;;;;;5013582;28;20025;-72
2023/09/06 11:50:58;;;;;;;6.72;4.20;;;27.90;78.00;;;;;;5013777;28;20077;-72
2023/09/06 11:53:25;;;;;;;4.30;3.35;;;28.00;79.40;;;;;;5013602;28;20033;-72
2023/09/06 11:55:52;;;;;;;6.57;4.05;;;28.00;77.80;;;;;;5013471;28;20026;-73
2023/09/06 11:58:20;;;;;;;6.95;4.22;;;28.00;77.50;;;;;;5013158;28;20033;-72
2023/09/06 12:00:50;;;;;;;8.00;4.03;;;28.10;79.40;;;;;;4995950;28;20418;-74
2023/09/06 12:03:17;;;;;;;8.13;4.45;;;28.00;77.60;;;;;;5013247;28;20061;-73
2023/09/06 12:05:48;;;;;;;8.48;4.28;;;28.10;77.10;;;;;;5013573;28;20045;-73
2023/09/06 12:08:19;;;;;;;7.88;4.65;;;28.20;76.50;;;;;;5013251;28;20022;-73
2023/09/06 12:10:52;;;;;;;7.72;4.68;;;28.10;77.80;;;;;;5012975;28;20165;-73
2023/09/06 12:13:28;;;;;;;9.55;4.75;;;28.10;77.50;;;;;;5013367;28;20029;-76
2023/09/06 12:15:56;;;;;;;5.35;3.53;;;28.20;78.10;;;;;;5012682;28;20030;-73
2023/09/06 12:18:24;;;;;;;14.50;3.97;;;28.20;77.90;;;;;;5013327;28;20025;-72
2023/09/06 12:20:50;;;;;;;10.57;4.97;;;28.10;76.10;;;;;;5013005;28;20040;-76
2023/09/06 12:23:22;;;;;;;6.53;4.25;;;28.20;76.00;;;;;;5013039;28;20034;-73
2023/09/06 12:25:48;;;;;;;8.43;4.65;;;28.20;76.80;;;;;;5012564;28;20025;-73
2023/09/06 12:28:14;;;;;;;6.88;3.92;;;28.20;77.00;;;;;;5012576;28;20038;-73
2023/09/06 12:30:40;;;;;;;9.93;4.60;;;28.20;77.20;;;;;;5012695;28;20040;-73
2023/09/06 12:33:06;;;;;;;8.32;3.72;;;28.20;75.20;;;;;;5012831;28;20081;-73
2023/09/06 12:35:38;;;;;;;6.70;4.70;;;28.20;75.40;;;;;;5012757;28;20033;-74
2023/09/06 12:38:07;;;;;;;;;;;28.40;77.10;;;;;;5013287;28;20036;-74
2023/09/06 12:40:36;;;;;;;6.20;4.30;;;;;;;;;;5012582;28;19956;-74
2023/09/06 12:43:04;;;;;;;7.20;4.28;;;;;;;;;;5012254;28;20106;-72
2023/09/06 12:45:31;;;;;;;5.60;3.83;;;;;;;;;;5012627;28;20028;-72